Latest Weather Observations for Sydney Olympic Park

IDN60901

Issued at 2:51 pm EDT Friday 9 December 2016 (issued every 10 minutes, with the page automatically refreshed every 10 minutes)

About weather observations | Map of Sydney area stations | Latest observations for Sydney area | Other Formats
Station Details ID: 066212 Name: SYDNEY OLYMPIC PARK AWS (ARCHERY CENTRE) Lat: -33.83 Lon: 151.07 Height: 4.0 m
Data from the previous 72 hours. | See also: Recent months at Sydney Olympic Park
Date/Time
EDT
Temp
°C
App
Temp
°C
Dew
Point
°C
Rel
Hum
%
Delta-T
°C
Wind Press
QNH
hPa
Press
MSL
hPa
Rain since
9am
mm
Dir  Spd
km/h
Gust
km/h
Spd
kts
Gust
kts
09/02:30pm 25.8 20.7 0.5 19 11.8 SW 17 30 9 16 - - 0.0
09/02:00pm 25.7 20.6 4.2 25 10.7 SW 20 33 11 18 - - 0.0
09/01:30pm 25.3 20.2 3.9 25 10.6 W 20 37 11 20 - - 0.0
09/01:00pm 25.0 19.7 5.2 28 10.0 W 22 37 12 20 - - 0.0
09/12:30pm 24.3 18.6 5.1 29 9.7 WNW 24 46 13 25 - - 0.0
09/12:00pm 23.8 18.2 5.2 30 9.3 W 24 44 13 24 - - 0.0
09/11:52am 23.4 17.1 5.8 32 8.9 WNW 28 50 15 27 - - 0.0
09/11:30am 23.5 18.7 7.2 35 8.5 WSW 22 41 12 22 - - 0.0
09/11:00am 24.0 20.0 9.2 39 8.0 W 20 37 11 20 - - 0.0
09/10:30am 22.3 16.9 6.5 36 8.1 W 24 41 13 22 - - 0.0
09/10:05am 22.0 16.0 7.0 38 7.7 WNW 28 52 15 28 - - 0.0
09/10:00am 22.0 16.1 7.4 39 7.6 W 28 43 15 23 - - 0.0
09/09:37am 21.1 15.0 6.6 39 7.3 W 28 48 15 26 - - 0.0
09/09:30am 21.1 14.9 6.2 38 7.5 WNW 28 44 15 24 - - 0.0
09/09:00am 20.8 15.8 6.4 39 7.3 W 22 46 12 25 - - 0.8
09/08:30am 19.8 14.1 6.5 42 6.7 W 26 37 14 20 - - 0.8
09/08:00am 19.6 14.9 6.0 41 6.7 WSW 20 39 11 21 - - 0.8
09/07:30am 19.4 14.8 5.8 41 6.7 W 19 35 10 19 - - 0.8
09/07:00am 19.0 15.3 6.2 43 6.3 WSW 15 30 8 16 - - 0.8
09/06:30am 18.8 14.3 6.3 44 6.2 WSW 19 32 10 17 - - 0.8
09/06:00am 18.6 14.7 7.1 47 5.8 W 17 28 9 15 - - 0.8
09/05:30am 18.4 16.1 7.5 49 5.5 W 9 15 5 8 - - 0.8
09/05:00am 18.5 16.6 7.6 49 5.5 WSW 7 13 4 7 - - 0.8
09/04:30am 18.8 16.6 7.9 49 5.6 SW 9 15 5 8 - - 0.8
09/04:00am 19.2 16.2 7.6 47 5.9 WSW 13 28 7 15 - - 0.8
09/03:30am 19.7 15.5 7.4 45 6.3 WSW 19 35 10 19 - - 0.8
09/03:00am 20.3 17.1 8.3 46 6.2 W 15 28 8 15 - - 0.8
09/02:30am 20.6 16.4 7.6 43 6.7 W 19 35 10 19 - - 0.8
09/02:00am 20.9 17.5 7.5 42 6.9 W 15 30 8 16 - - 0.8
09/01:30am 21.3 16.5 7.2 40 7.2 W 22 37 12 20 - - 0.8
09/01:00am 21.8 17.4 9.0 44 6.8 WSW 22 39 12 21 - - 0.8
09/12:30am 23.4 19.7 12.7 51 6.1 W 24 48 13 26 - - 0.8
09/12:00am 26.0 24.3 15.7 53 6.3 NW 19 30 10 16 - - 0.8
 
Date/Time
EDT
Temp
°C
App
Temp
°C
Dew
Point
°C
Rel
Hum
%
Delta-T
°C
Wind Press
QNH
hPa
Press
MSL
hPa
Rain since
9am
mm
Dir  Spd
km/h
Gust
km/h
Spd
kts
Gust
kts
08/11:30pm 26.1 24.7 15.5 52 6.4 NW 17 32 9 17 - - 0.8
08/11:00pm 26.2 26.3 15.6 52 6.4 W 9 15 5 8 - - 0.8
08/10:30pm 27.2 26.8 15.2 47 7.3 WSW 11 20 6 11 - - 0.8
08/10:00pm 27.5 26.7 15.2 47 7.5 W 13 28 7 15 - - 0.8
08/09:30pm 26.5 26.1 16.1 52 6.4 W 13 22 7 12 - - 0.8
08/09:24pm 26.1 25.1 16.6 55 5.9 WSW 17 41 9 22 - - 0.8
08/09:04pm 26.7 27.2 20.1 67 4.3 WSW 17 43 9 23 - - 0.6
08/09:00pm 28.3 30.0 21.6 67 4.5 W 15 33 8 18 - - 0.0
08/08:30pm 27.8 30.7 21.1 67 4.4 E 7 13 4 7 - - 0.0
08/08:00pm 28.5 31.4 21.0 64 5.0 ENE 7 15 4 8 - - 0.0
08/07:30pm 29.1 31.0 20.5 59 5.7 NE 11 22 6 12 - - 0.0
08/07:00pm 29.9 31.4 20.5 57 6.2 NE 13 22 7 12 - - 0.0
08/06:30pm 30.1 31.0 20.1 55 6.6 NE 15 30 8 16 - - 0.0
08/06:00pm 30.7 31.0 20.3 53 6.9 NE 19 33 10 18 - - 0.0
08/05:30pm 30.7 30.8 20.0 52 7.1 NNE 19 30 10 16 - - 0.0
08/05:00pm 30.9 31.1 20.5 54 6.9 NE 20 39 11 21 - - 0.0
08/04:30pm 30.2 29.8 20.2 55 6.6 NE 22 39 12 21 - - 0.0
08/04:00pm 30.6 30.2 19.3 51 7.4 NE 20 37 11 20 - - 0.0
08/03:30pm 30.6 30.2 19.3 51 7.4 NE 20 35 11 19 - - 0.0
08/03:00pm 31.2 31.5 19.5 49 7.7 NE 17 30 9 16 - - 0.0
08/02:30pm 29.5 29.9 19.8 56 6.4 NE 17 32 9 17 - - 0.0
08/02:00pm 29.9 29.6 19.6 54 6.7 E 20 35 11 19 - - 0.0
08/01:30pm 29.7 29.5 19.4 54 6.7 E 19 32 10 17 - - 0.0
08/01:00pm 29.9 30.3 19.9 55 6.6 E 17 24 9 13 - - 0.0
08/12:30pm 29.6 29.7 19.9 56 6.4 E 19 28 10 15 - - 0.0
08/12:00pm 30.3 31.1 18.1 48 7.8 ENE 11 20 6 11 - - 0.0
08/11:30am 28.5 28.3 17.7 52 6.8 E 15 24 8 13 - - 0.0
08/11:00am 27.9 28.7 17.4 52 6.6 E 9 17 5 9 - - 0.0
08/10:30am 26.9 27.7 17.4 56 6.0 E 9 13 5 7 - - 0.0
08/10:00am 26.4 27.6 18.3 61 5.1 ENE 9 15 5 8 - - 0.0
08/09:30am 24.7 25.5 17.2 63 4.7 E 9 13 5 7 - - 0.0
08/09:00am 23.8 24.3 16.6 64 4.4 E 9 13 5 7 - - 0.2
08/08:30am 23.3 24.5 16.8 67 4.0 ENE 6 9 3 5 - - 0.2
08/08:00am 22.2 23.5 16.2 69 3.6 N 4 9 2 5 - - 0.2
08/07:30am 21.3 22.4 16.7 75 2.8 NNE 6 11 3 6 - - 0.2
08/07:00am 20.5 20.6 16.5 78 2.4 NNE 11 17 6 9 - - 0.2
08/06:30am 20.0 20.5 16.6 81 2.1 NE 9 13 5 7 - - 0.2
08/06:00am 19.7 20.6 16.5 82 1.9 NNE 7 13 4 7 - - 0.2
08/05:30am 19.8 20.2 16.4 81 2.0 NNE 9 15 5 8 - - 0.2
08/05:00am 20.0 20.6 16.8 82 1.9 N 9 15 5 8 - - 0.2
08/04:30am 20.2 21.5 17.0 82 1.9 N 6 13 3 7 - - 0.2
08/04:00am 20.2 20.8 16.8 81 2.1 N 9 13 5 7 - - 0.2
08/03:30am 20.2 20.9 17.0 82 1.9 N 9 15 5 8 - - 0.2
08/03:00am 20.2 21.5 17.2 83 1.8 N 6 7 3 4 - - 0.2
08/02:30am 20.2 21.3 17.2 83 1.8 N 7 11 4 6 - - 0.2
08/02:00am 20.0 21.2 17.4 85 1.6 NNW 7 13 4 7 - - 0.2
08/01:30am 19.6 21.6 17.0 85 1.6 NNW 2 7 1 4 - - 0.2
08/01:00am 19.8 21.8 17.0 84 1.7 NW 2 7 1 4 - - 0.2
08/12:30am 20.2 21.5 17.2 83 1.8 N 6 9 3 5 - - 0.2
08/12:00am 20.6 21.9 17.0 80 2.2 NNE 6 11 3 6 - - 0.2
 
Date/Time
EDT
Temp
°C
App
Temp
°C
Dew
Point
°C
Rel
Hum
%
Delta-T
°C
Wind Press
QNH
hPa
Press
MSL
hPa
Rain since
9am
mm
Dir  Spd
km/h
Gust
km/h
Spd
kts
Gust
kts
07/11:30pm 20.7 21.7 16.9 79 2.3 NNE 7 15 4 8 - - 0.2
07/11:00pm 20.8 22.1 17.0 79 2.3 NNE 6 15 3 8 - - 0.2
07/10:30pm 20.9 22.1 16.9 78 2.4 N 6 9 3 5 - - 0.2
07/10:00pm 21.2 21.5 17.0 77 2.6 NE 11 17 6 9 - - 0.2
07/09:30pm 21.2 21.9 17.0 77 2.6 NE 9 15 5 8 - - 0.2
07/09:00pm 21.3 21.5 16.7 75 2.8 NE 11 20 6 11 - - 0.2
07/08:30pm 21.3 21.8 16.5 74 2.9 NE 9 13 5 7 - - 0.2
07/08:00pm 21.7 21.1 16.6 73 3.1 ENE 15 24 8 13 - - 0.2
07/07:30pm 22.0 21.3 16.3 70 3.4 NE 15 30 8 16 - - 0.2
07/07:00pm 22.3 21.6 16.3 69 3.6 NE 15 24 8 13 - - 0.2
07/06:30pm 23.1 22.7 16.2 65 4.2 ENE 13 26 7 14 - - 0.2
07/06:00pm 23.4 21.8 16.4 64 4.3 E 20 30 11 16 - - 0.2
07/05:30pm 23.9 23.3 16.7 64 4.4 E 15 26 8 14 - - 0.2
07/05:00pm 23.5 22.0 16.3 64 4.4 E 19 30 10 16 - - 0.2
07/04:30pm 23.5 22.2 15.8 62 4.6 E 17 28 9 15 - - 0.2
07/04:00pm 24.4 23.3 16.4 61 4.9 E 17 26 9 14 - - 0.2
07/03:30pm 24.3 22.8 16.8 63 4.6 E 20 33 11 18 - - 0.2
07/03:00pm 24.5 23.0 16.7 61 4.8 E 20 33 11 18 - - 0.2
07/02:30pm 24.3 22.9 17.1 64 4.5 ESE 20 30 11 16 - - 0.2
07/02:00pm 24.0 22.3 16.3 62 4.7 ESE 20 28 11 15 - - 0.2
07/01:30pm 23.8 23.4 16.3 63 4.6 E 13 20 7 11 - - 0.2
07/01:00pm 24.4 23.0 16.6 61 4.8 E 19 28 10 15 - - 0.2
07/12:30pm 24.8 24.3 16.8 61 4.9 E 15 22 8 12 - - 0.2
07/12:00pm 24.0 23.7 16.5 63 4.6 E 13 24 7 13 - - 0.2
07/11:30am 23.8 23.1 16.3 63 4.6 ESE 15 22 8 12 - - 0.2
07/11:00am 24.0 24.1 16.5 63 4.6 ESE 11 19 6 10 - - 0.2
07/10:30am 22.8 23.0 16.8 69 3.7 SE 11 17 6 9 - - 0.2
07/10:00am 21.8 22.7 17.6 77 2.6 SE 9 15 5 8 - - 0.2
07/09:30am 21.3 23.2 18.5 84 1.8 NNW 6 11 3 6 - - 0.2
07/09:05am 20.7 22.6 18.5 87 1.4 SSE 6 11 3 6 - - 0.0
07/09:00am 20.7 22.5 18.3 86 1.5 SSW 6 11 3 6 - - 3.8
07/08:39am 21.5 23.6 18.1 81 2.1 SE 4 9 2 5 - - 3.8
07/08:30am 21.7 24.8 19.6 88 1.3 NW 2 7 1 4 - - 3.8
07/08:00am 19.8 22.8 19.3 97 0.3 NW 2 9 1 5 - - 3.8
07/07:30am 18.5 21.0 18.2 98 0.2 WNW 2 6 1 3 - - 3.8
07/07:00am 18.2 19.9 17.2 94 0.6 W 4 11 2 6 - - 3.8
07/06:30am 18.3 21.2 18.1 99 0.1 CALM 0 6 0 3 - - 3.8
07/06:00am 18.1 19.5 17.9 99 0.1 NW 7 9 4 5 - - 3.8
07/05:30am 18.2 20.3 18.0 99 0.1 WNW 4 9 2 5 - - 3.8
07/05:00am 18.6 20.4 18.4 99 0.1 WNW 6 9 3 5 - - 3.8
07/04:30am 18.9 22.0 18.7 99 0.1 CALM 0 4 0 2 - - 3.8
07/04:00am 18.8 21.1 18.6 99 0.1 WSW 4 7 2 4 - - 3.6
07/03:30am 19.0 21.8 18.8 99 0.1 W 2 9 1 5 - - 3.6
07/03:26am 19.0 21.8 18.8 99 0.1 W 2 9 1 5 - - 3.6
07/03:00am 19.4 22.2 18.9 97 0.3 W 2 7 1 4 - - 3.4
07/02:55am 19.5 22.4 19.0 97 0.3 W 2 6 1 3 - - 3.2
07/02:30am 19.9 23.0 19.4 97 0.3 SW 2 7 1 4 - - 2.8
07/02:00am 20.2 21.4 19.0 93 0.8 SSW 11 20 6 11 - - 2.4
07/01:30am 20.7 22.3 19.2 91 0.9 SSW 9 17 5 9 - - 1.8
07/01:00am 20.6 22.2 19.1 91 0.9 S 9 13 5 7 - - 1.8
07/12:30am 20.6 22.3 18.5 88 1.3 SSE 7 11 4 6 - - 1.8
07/12:00am 21.5 22.4 18.5 83 1.9 SE 11 15 6 8 - - 1.6
 
Date/Time
EDT
Temp
°C
App
Temp
°C
Dew
Point
°C
Rel
Hum
%
Delta-T
°C
Wind Press
QNH
hPa
Press
MSL
hPa
Rain since
9am
mm
Dir  Spd
km/h
Gust
km/h
Spd
kts
Gust
kts
06/11:30pm 21.9 25.6 20.0 89 1.2 CALM 0 7 0 4 - - 1.6
06/11:00pm 22.4 25.6 21.6 95 0.5 W 7 9 4 5 - - 1.6
06/10:48pm 22.5 25.9 22.0 97 0.3 WNW 7 11 4 6 - - 1.6
06/10:30pm 22.7 26.4 22.5 99 0.1 SW 7 11 4 6 - - 1.4
06/10:21pm 22.9 26.2 22.6 98 0.2 WSW 9 13 5 7 - - 1.4
06/10:00pm 22.8 26.1 22.6 99 0.1 WNW 9 13 5 7 - - 1.4
06/09:30pm 22.8 26.1 22.5 98 0.2 NW 9 11 5 6 - - 1.2
06/09:00pm 22.9 26.5 22.4 97 0.3 WNW 7 11 4 6 - - 1.2
06/08:30pm 22.8 26.0 22.3 97 0.3 WNW 9 13 5 7 - - 1.2
06/08:00pm 22.5 26.3 21.7 95 0.5 NW 4 7 2 4 - - 1.2
06/07:30pm 23.1 26.0 21.7 92 0.9 NW 9 13 5 7 - - 1.2
06/07:00pm 23.3 26.9 22.1 93 0.8 NW 6 9 3 5 - - 1.2
06/06:30pm 23.4 27.1 22.2 93 0.8 NNW 6 9 3 5 - - 1.2
06/06:00pm 23.5 27.6 22.3 93 0.8 N 4 7 2 4 - - 1.2
06/05:30pm 23.5 28.3 22.1 92 0.9 CALM 0 0 0 0 - - 1.2
06/05:00pm 23.3 28.0 21.9 92 0.9 CALM 0 0 0 0 - - 1.2
06/04:30pm 23.0 27.6 21.8 93 0.8 CALM 0 6 0 3 - - 1.2
06/04:00pm 23.0 27.5 21.6 92 0.9 CALM 0 4 0 2 - - 1.2
06/03:30pm 22.6 25.7 21.4 93 0.8 NNE 7 13 4 7 - - 1.2
06/03:08pm 22.7 25.9 21.3 92 0.9 NNE 6 9 3 5 - - 1.2
06/03:00pm 22.7 25.9 21.2 91 1.0 NE 6 11 3 6 - - 1.0

Latest Capital City Observations: Canberra | Sydney | Melbourne | Brisbane | Adelaide | Perth | Hobart | Darwin

Other Formats:

Comma delimited format used in spreadsheet applications
http://www.bom.gov.au/fwo/IDN60901/IDN60901.95765.axf

JavaScript Object Notation format (JSON) in row-major order
http://www.bom.gov.au/fwo/IDN60901/IDN60901.95765.json